Time;durP1;ratioP1;P1;durP2;ratioP2;P2;SDS_P1;SDS_P2;PMS_P1;PMS_P2;Temp;Humidity;BMP_temperature;BMP_pressure;BME280_temperature;BME280_humidity;BME280_pressure;Samples;Min_cycle;Max_cycle;Signal;HPM_P1;HPM_P2
2022/04/16 00:01:37;;;;;;;;;;;18.60;94.00;;;;;;5031298;28;20000;-79
2022/04/16 00:04:03;;;;;;;;;;;18.50;94.20;;;;;;5032989;28;19912;-78
2022/04/16 00:06:29;;;;;;;;;;;18.50;94.30;;;;;;5030279;28;19909;-78
2022/04/16 00:08:54;;;;;;;;;;;18.50;94.00;;;;;;5030200;28;19917;-79
2022/04/16 00:11:20;;;;;;;;;;;18.50;93.80;;;;;;5030486;28;19909;-79
2022/04/16 00:13:50;;;;;;;;;;;18.60;93.90;;;;;;5030272;28;19909;-79
2022/04/16 00:16:17;;;;;;;;;;;18.60;93.70;;;;;;5033765;28;20274;-79
2022/04/16 00:18:43;;;;;;;;;;;18.70;93.40;;;;;;5031066;28;19978;-79
2022/04/16 00:21:09;;;;;;;;;;;18.70;93.50;;;;;;5029823;28;20370;-79
2022/04/16 00:23:34;;;;;;;;;;;18.70;93.50;;;;;;5030011;28;19994;-78
2022/04/16 00:26:00;;;;;;;;;;;18.70;93.30;;;;;;5030614;28;20359;-78
2022/04/16 00:28:27;;;;;;;;;;;18.60;93.20;;;;;;5032158;28;19952;-78
2022/04/16 00:30:53;;;;;;;;;;;18.60;93.30;;;;;;5031139;28;19919;-78
2022/04/16 00:33:19;;;;;;;;;;;18.70;93.10;;;;;;5029863;28;19995;-78
2022/04/16 00:35:44;;;;;;;;;;;18.70;92.90;;;;;;5030289;28;20362;-78
2022/04/16 00:38:10;;;;;;;;;;;18.70;92.90;;;;;;5029897;28;20301;-78
2022/04/16 00:40:36;;;;;;;;;;;18.70;92.80;;;;;;5031095;28;19975;-78
2022/04/16 00:43:02;;;;;;;;;;;18.70;92.70;;;;;;5032564;28;19912;-78
2022/04/16 00:45:29;;;;;;;;;;;18.80;92.40;;;;;;5029437;28;19909;-78
2022/04/16 00:47:55;;;;;;;;;;;18.70;92.40;;;;;;5029750;28;19920;-78
2022/04/16 00:50:21;;;;;;;;;;;18.80;92.20;;;;;;5029875;28;19909;-79
2022/04/16 00:52:46;;;;;;;;;;;18.80;92.20;;;;;;5029338;28;19909;-78
2022/04/16 00:55:12;;;;;;;;;;;18.80;92.10;;;;;;5033428;28;20435;-78
2022/04/16 00:57:39;;;;;;;;;;;18.80;92.20;;;;;;5029409;28;19916;-78
2022/04/16 01:00:05;;;;;;;;;;;18.80;92.10;;;;;;5029192;28;19913;-78
2022/04/16 01:02:31;;;;;;;;;;;18.80;92.00;;;;;;5029531;28;19909;-78
2022/04/16 01:04:57;;;;;;;;;;;18.90;91.90;;;;;;5029901;28;19917;-78
2022/04/16 01:07:23;;;;;;;;;;;18.80;92.00;;;;;;5031089;28;20042;-78
2022/04/16 01:09:49;;;;;;;;;;;18.80;92.10;;;;;;5030708;28;19905;-78
2022/04/16 01:12:14;;;;;;;;;;;18.80;91.90;;;;;;5029020;28;19916;-78
2022/04/16 01:14:40;;;;;;;;;;;18.80;92.00;;;;;;5028971;28;19909;-78
2022/04/16 01:17:06;;;;;;;;;;;18.80;92.30;;;;;;5011900;28;19999;-78
2022/04/16 01:19:34;;;;;;;;;;;18.70;92.20;;;;;;5030910;28;19955;-78
2022/04/16 01:22:00;;;;;;;;;;;18.70;92.10;;;;;;5031753;28;19947;-78
2022/04/16 01:24:26;;;;;;;;;;;18.70;92.10;;;;;;5007218;28;19960;-78
2022/04/16 01:26:51;;;;;;;;;;;18.70;92.20;;;;;;5028681;28;19908;-78
2022/04/16 01:29:17;;;;;;;;;;;18.60;92.20;;;;;;5029017;28;19990;-78
2022/04/16 01:31:43;;;;;;;;;;;18.60;92.00;;;;;;5014225;28;19909;-79
2022/04/16 01:34:09;;;;;;;;;;;18.60;92.30;;;;;;5032271;28;20278;-79
2022/04/16 01:36:34;;;;;;;;;;;18.60;92.10;;;;;;5028807;28;19909;-78
2022/04/16 01:39:01;;;;;;;;;;;18.60;92.00;;;;;;5028766;28;20004;-79
2022/04/16 01:41:29;;;;;;;;;;;18.60;92.00;;;;;;5028759;28;19909;-78
2022/04/16 01:43:56;;;;;;;;;;;18.70;92.10;;;;;;5028685;28;19909;-78
2022/04/16 01:46:21;;;;;;;;;;;18.60;92.00;;;;;;5030943;28;20018;-79
2022/04/16 01:48:49;;;;;;;;;;;18.60;92.30;;;;;;5029918;28;19917;-79
2022/04/16 01:51:17;;;;;;;;;;;18.50;92.00;;;;;;5028294;28;19920;-79
2022/04/16 01:53:44;;;;;;;;;;;18.50;92.30;;;;;;5028378;28;19909;-78
2022/04/16 01:56:10;;;;;;;;;;;18.50;92.10;;;;;;5027977;28;20398;-78
2022/04/16 01:58:38;;;;;;;;;;;18.50;92.20;;;;;;5029935;28;19924;-78
2022/04/16 02:01:04;;;;;;;;;;;18.50;91.90;;;;;;5030976;28;20390;-78
2022/04/16 02:03:30;;;;;;;;;;;18.50;92.10;;;;;;5028287;28;20369;-78
2022/04/16 02:05:56;;;;;;;;;;;18.50;91.70;;;;;;5027967;28;19916;-78
2022/04/16 02:08:21;;;;;;;;;;;18.50;91.50;;;;;;5028512;28;19917;-78
2022/04/16 02:10:47;;;;;;;;;;;18.50;91.40;;;;;;5027922;28;19919;-78
2022/04/16 02:13:12;;;;;;;;;;;18.50;91.40;;;;;;5032293;28;19951;-78
2022/04/16 02:15:38;;;;;;;;;;;18.60;91.40;;;;;;5028400;28;19913;-78
2022/04/16 02:18:04;;;;;;;;;;;18.60;91.10;;;;;;5028104;28;19955;-78
2022/04/16 02:20:30;;;;;;;;;;;18.60;91.10;;;;;;5028363;28;20021;-78
2022/04/16 02:22:55;;;;;;;;;;;18.60;91.20;;;;;;5028396;28;19949;-78
2022/04/16 02:25:24;;;;;;;;;;;18.50;91.00;;;;;;5030072;28;19905;-78
2022/04/16 02:27:49;;;;;;;;;;;18.50;91.00;;;;;;5029681;28;19919;-78
2022/04/16 02:30:15;;;;;;;;;;;18.50;91.10;;;;;;5027946;28;19909;-78
2022/04/16 02:32:43;;;;;;;;;;;18.50;91.20;;;;;;5028281;28;19913;-78
2022/04/16 02:35:09;;;;;;;;;;;18.40;91.10;;;;;;5028037;28;20354;-78
2022/04/16 02:37:35;;;;;;;;;;;18.40;91.20;;;;;;5029296;28;19916;-78
2022/04/16 02:40:02;;;;;;;;;;;18.30;91.30;;;;;;5029559;28;19982;-78
2022/04/16 02:42:27;;;;;;;;;;;18.30;91.50;;;;;;5028422;28;20007;-78
2022/04/16 02:47:37;;;;;;;;;;;18.30;91.30;;;;;;5027990;28;21565;-79
2022/04/16 02:50:03;;;;;;;;;;;18.20;91.60;;;;;;5027935;28;19913;-79
2022/04/16 02:52:30;;;;;;;;;;;18.20;91.50;;;;;;5030521;28;20311;-77
2022/04/16 02:54:55;;;;;;;;;;;18.20;91.50;;;;;;5027198;28;20306;-78
2022/04/16 02:57:21;;;;;;;;;;;18.20;91.50;;;;;;5027549;28;19955;-78
2022/04/16 02:59:49;;;;;;;;;;;18.10;91.60;;;;;;5028064;28;20293;-78
2022/04/16 03:02:15;;;;;;;;;;;18.10;91.60;;;;;;5027791;28;19916;-78
2022/04/16 03:04:40;;;;;;;;;;;18.10;91.60;;;;;;5028647;28;19913;-78
2022/04/16 03:07:06;;;;;;;;;;;18.10;91.40;;;;;;5030870;28;20008;-78
2022/04/16 03:09:33;;;;;;;;;;;18.10;91.20;;;;;;5027115;28;19921;-78
2022/04/16 03:11:59;;;;;;;;;;;18.10;91.00;;;;;;5027405;28;19909;-78
2022/04/16 03:19:54;;;;;;;;;;;18.20;90.80;;;;;;5017349;28;20022;-78
2022/04/16 03:22:19;;;;;;;;;;;18.10;90.70;;;;;;5033786;28;20040;-77
2022/04/16 03:24:45;;;;;;;;;;;18.10;90.70;;;;;;5032154;28;19944;-78
2022/04/16 03:27:11;;;;;;;;;;;18.10;90.80;;;;;;5031330;28;19909;-78
2022/04/16 03:29:37;;;;;;;;;;;18.10;90.90;;;;;;5030959;28;19916;-78
2022/04/16 03:32:03;;;;;;;;;;;18.10;90.90;;;;;;5031211;28;19917;-78
2022/04/16 03:34:29;;;;;;;;;;;18.10;91.00;;;;;;5033396;28;20003;-78
2022/04/16 03:36:55;;;;;;;;;;;18.00;91.00;;;;;;5032188;28;20002;-78
2022/04/16 03:39:21;;;;;;;;;;;18.00;90.70;;;;;;5031168;28;19920;-78
2022/04/16 03:41:47;;;;;;;;;;;18.10;90.60;;;;;;5030933;28;20003;-78
2022/04/16 03:44:13;;;;;;;;;;;18.10;90.60;;;;;;5013109;28;19948;-78
2022/04/16 03:46:38;;;;;;;;;;;18.10;90.40;;;;;;5014335;28;20286;-78
2022/04/16 03:49:04;;;;;;;;;;;18.10;90.40;;;;;;5033732;28;19917;-77
2022/04/16 03:51:30;;;;;;;;;;;18.10;90.30;;;;;;5030548;28;19905;-77
2022/04/16 03:53:55;;;;;;;;;;;18.10;90.20;;;;;;5030509;28;19913;-78
2022/04/16 04:01:49;;;;;;;;;;;18.10;90.40;;;;;;5015674;28;19912;-78
2022/04/16 04:04:15;;;;;;;;;;;18.00;90.30;;;;;;5034036;28;19917;-78
2022/04/16 04:06:41;;;;;;;;;;;18.00;90.60;;;;;;5030585;28;19913;-78
2022/04/16 04:09:09;;;;;;;;;;;17.90;90.50;;;;;;5030502;28;19917;-78
2022/04/16 04:11:35;;;;;;;;;;;17.90;90.50;;;;;;5030514;28;20377;-78
2022/04/16 04:14:00;;;;;;;;;;;18.00;90.50;;;;;;5013470;28;19906;-78
2022/04/16 04:16:26;;;;;;;;;;;17.90;90.50;;;;;;5032949;28;19913;-77
2022/04/16 04:18:51;;;;;;;;;;;17.90;90.40;;;;;;5031628;28;19909;-78
2022/04/16 04:21:17;;;;;;;;;;;17.90;90.40;;;;;;5029685;28;19975;-78
2022/04/16 04:23:43;;;;;;;;;;;17.90;90.30;;;;;;5030115;28;19959;-78
2022/04/16 04:26:08;;;;;;;;;;;17.90;90.30;;;;;;5030460;28;19996;-78
2022/04/16 04:28:34;;;;;;;;;;;17.80;90.40;;;;;;5031040;28;20350;-78
2022/04/16 04:30:59;;;;;;;;;;;17.80;90.50;;;;;;5032048;28;19913;-78
2022/04/16 04:33:25;;;;;;;;;;;17.80;90.60;;;;;;5012548;28;19912;-78
2022/04/16 04:35:51;;;;;;;;;;;17.80;90.50;;;;;;5029786;28;19909;-78
2022/04/16 04:38:16;;;;;;;;;;;17.80;90.50;;;;;;5029582;28;19927;-78
2022/04/16 04:40:42;;;;;;;;;;;17.70;90.40;;;;;;5030567;28;19917;-78
2022/04/16 04:43:07;;;;;;;;;;;17.70;90.40;;;;;;5032937;28;19905;-78
2022/04/16 04:45:33;;;;;;;;;;;17.70;90.50;;;;;;5030026;28;19912;-78
2022/04/16 04:47:59;;;;;;;;;;;17.70;90.50;;;;;;5029743;28;19921;-78
2022/04/16 04:50:24;;;;;;;;;;;17.70;90.40;;;;;;5028964;28;19912;-78
2022/04/16 04:52:50;;;;;;;;;;;17.70;90.50;;;;;;5029773;28;19917;-78
2022/04/16 04:55:15;;;;;;;;;;;17.70;90.30;;;;;;5032863;28;19905;-78
2022/04/16 04:57:42;;;;;;;;;;;17.60;90.30;;;;;;5030464;28;19959;-78
2022/04/16 05:00:09;;;;;;;;;;;17.60;90.40;;;;;;5029353;28;19968;-78
2022/04/16 05:02:45;;;;;;;;;;;17.70;90.40;;;;;;5029313;28;20378;-79
2022/04/16 05:05:11;;;;;;;;;;;17.60;90.30;;;;;;5029247;28;20366;-78
2022/04/16 05:07:37;;;;;;;;;;;17.70;90.30;;;;;;5030536;28;20329;-78
2022/04/16 05:10:03;;;;;;;;;;;17.60;90.30;;;;;;5031600;28;19963;-78
2022/04/16 05:12:28;;;;;;;;;;;17.60;90.40;;;;;;5012147;28;19905;-78
2022/04/16 05:14:54;;;;;;;;;;;17.60;90.30;;;;;;5028750;28;20330;-79
2022/04/16 05:17:19;;;;;;;;;;;17.60;90.40;;;;;;5029483;28;19912;-78
2022/04/16 05:19:45;;;;;;;;;;;17.50;90.40;;;;;;5029386;28;20343;-78
2022/04/16 05:22:11;;;;;;;;;;;17.60;90.40;;;;;;5032727;28;19979;-78
2022/04/16 05:24:36;;;;;;;;;;;17.50;90.40;;;;;;5029170;28;19905;-78
2022/04/16 05:27:02;;;;;;;;;;;17.60;90.40;;;;;;5029324;28;19913;-78
2022/04/16 05:29:48;;;;;;;;;;;17.50;90.30;;;;;;5028670;28;19913;-77
2022/04/16 05:32:16;;;;;;;;;;;17.50;90.60;;;;;;5028660;28;20804;-78
2022/04/16 05:34:42;;;;;;;;;;;17.60;90.60;;;;;;5029727;28;19916;-78
2022/04/16 05:37:07;;;;;;;;;;;17.60;90.80;;;;;;5031835;28;19913;-78
2022/04/16 05:39:33;;;;;;;;;;;17.60;90.50;;;;;;5028523;28;19921;-78
2022/04/16 05:41:59;;;;;;;;;;;17.60;90.40;;;;;;5010993;28;20374;-77
2022/04/16 05:44:24;;;;;;;;;;;17.60;90.60;;;;;;5028611;28;20263;-78
2022/04/16 05:46:50;;;;;;;;;;;17.70;90.60;;;;;;5029204;28;19909;-77
2022/04/16 05:49:15;;;;;;;;;;;17.70;90.50;;;;;;5031997;28;19917;-78
2022/04/16 05:51:41;;;;;;;;;;;17.60;90.80;;;;;;5006586;28;20344;-78
2022/04/16 05:54:07;;;;;;;;;;;17.60;90.60;;;;;;5029218;28;19919;-78
2022/04/16 05:56:33;;;;;;;;;;;17.60;90.30;;;;;;5028297;28;19951;-78
2022/04/16 05:59:00;;;;;;;;;;;17.70;90.30;;;;;;5028815;28;19956;-78
2022/04/16 06:01:26;;;;;;;;;;;17.70;90.30;;;;;;5031328;28;19964;-78
2022/04/16 06:03:51;;;;;;;;;;;17.80;90.40;;;;;;5029363;28;19944;-78
2022/04/16 06:06:17;;;;;;;;;;;17.80;90.30;;;;;;5028315;28;19913;-77
2022/04/16 06:08:43;;;;;;;;;;;17.80;90.50;;;;;;5010971;28;20417;-78
2022/04/16 06:11:08;;;;;;;;;;;17.80;90.30;;;;;;5028500;28;19963;-76
2022/04/16 06:13:34;;;;;;;;;;;17.80;90.40;;;;;;5012419;28;19905;-75
2022/04/16 06:16:00;;;;;;;;;;;17.80;90.50;;;;;;5030575;28;20290;-77
2022/04/16 06:18:26;;;;;;;;;;;17.80;90.80;;;;;;5027634;28;19932;-76
2022/04/16 06:20:51;;;;;;;;;;;17.90;90.70;;;;;;5028052;28;19909;-74
2022/04/16 06:23:18;;;;;;;;;;;17.90;90.50;;;;;;5029760;28;19920;-74
2022/04/16 06:25:44;;;;;;;;;;;18.00;90.60;;;;;;5019104;28;19909;-75
2022/04/16 06:28:10;;;;;;;;;;;18.10;90.30;;;;;;5003456;28;19919;-74
2022/04/16 06:30:35;;;;;;;;;;;18.10;90.10;;;;;;5027519;28;19909;-75
2022/04/16 06:33:01;;;;;;;;;;;18.10;90.30;;;;;;5027213;28;19909;-75
2022/04/16 06:35:27;;;;;;;;;;;18.20;89.90;;;;;;5028029;28;19917;-74
2022/04/16 06:37:52;;;;;;;;;;;18.20;90.10;;;;;;5028090;28;20290;-75
2022/04/16 06:40:18;;;;;;;;;;;18.30;90.10;;;;;;5031541;28;19909;-75
2022/04/16 06:42:44;;;;;;;;;;;18.30;89.90;;;;;;5034010;28;19916;-74
2022/04/16 06:45:11;;;;;;;;;;;18.30;89.20;;;;;;5028000;28;20268;-75
2022/04/16 06:47:36;;;;;;;;;;;18.40;89.20;;;;;;5019155;28;19910;-75
2022/04/16 06:50:03;;;;;;;;;;;18.40;88.80;;;;;;5028190;28;19921;-75
2022/04/16 06:52:28;;;;;;;;;;;18.50;88.90;;;;;;5034163;28;20376;-75
2022/04/16 06:54:55;;;;;;;;;;;18.60;89.10;;;;;;5024271;28;19917;-75
2022/04/16 06:57:21;;;;;;;;;;;18.60;88.90;;;;;;5030282;28;19912;-75
2022/04/16 06:59:47;;;;;;;;;;;18.60;88.30;;;;;;5030332;28;20309;-75
2022/04/16 07:02:12;;;;;;;;;;;18.70;87.50;;;;;;5013864;28;19915;-75
2022/04/16 07:04:38;;;;;;;;;;;18.70;87.50;;;;;;5033576;28;19916;-75
2022/04/16 07:07:04;;;;;;;;;;;18.80;88.20;;;;;;5013192;28;19909;-74
2022/04/16 07:09:29;;;;;;;;;;;18.90;88.40;;;;;;5030189;28;20255;-74
2022/04/16 07:11:55;;;;;;;;;;;18.90;88.00;;;;;;5031284;28;19909;-74
2022/04/16 07:14:21;;;;;;;;;;;19.00;87.80;;;;;;5031171;28;20274;-73
2022/04/16 07:16:47;;;;;;;;;;;19.00;86.70;;;;;;5013790;28;20117;-74
2022/04/16 07:19:12;;;;;;;;;;;19.10;86.80;;;;;;5035193;28;19912;-74
2022/04/16 07:21:38;;;;;;;;;;;19.10;85.50;;;;;;5031534;28;19905;-75
2022/04/16 07:24:04;;;;;;;;;;;19.20;85.60;;;;;;5038851;28;19916;-74
2022/04/16 07:26:29;;;;;;;;;;;19.20;85.50;;;;;;5040875;28;19909;-75
2022/04/16 07:28:55;;;;;;;;;;;19.30;85.80;;;;;;5043544;28;19917;-75
2022/04/16 07:31:20;;;;;;;;;;;19.40;85.50;;;;;;5033859;28;19951;-75
2022/04/16 07:33:46;;;;;;;;;;;19.40;85.20;;;;;;5032242;28;20417;-75
2022/04/16 07:36:12;;;;;;;;;;;19.50;85.30;;;;;;5050438;28;19916;-75
2022/04/16 07:38:37;;;;;;;;;;;19.60;85.00;;;;;;5039314;28;20459;-78
2022/04/16 07:41:03;;;;;;;;;;;19.60;84.70;;;;;;5031066;28;20433;-73
2022/04/16 07:43:33;;;;;;;;;;;19.70;84.30;;;;;;5032959;28;19912;-73
2022/04/16 07:45:58;;;;;;;;;;;19.80;84.10;;;;;;5032923;28;20370;-72
2022/04/16 07:48:24;;;;;;;;;;;19.80;84.90;;;;;;5030620;28;19919;-72
2022/04/16 07:50:50;;;;;;;;;;;19.80;84.70;;;;;;5031001;28;19909;-72
2022/04/16 07:53:15;;;;;;;;;;;19.90;84.40;;;;;;5030765;28;19909;-71
2022/04/16 07:55:41;;;;;;;;;;;20.00;85.90;;;;;;5032371;28;20271;-72
2022/04/16 07:58:06;;;;;;;;;;;20.10;85.50;;;;;;5033013;28;20030;-72
2022/04/16 08:00:32;;;;;;;;;;;20.10;83.80;;;;;;5030614;28;19909;-72
2022/04/16 08:02:57;;;;;;;;;;;20.20;82.70;;;;;;5029742;28;19962;-72
2022/04/16 08:05:23;;;;;;;;;;;20.20;82.50;;;;;;5030512;28;19909;-72
2022/04/16 08:07:49;;;;;;;;;;;20.30;82.60;;;;;;5030570;28;19964;-72
2022/04/16 08:10:15;;;;;;;;;;;20.40;82.00;;;;;;5033882;28;19931;-72
2022/04/16 08:12:40;;;;;;;;;;;20.40;82.50;;;;;;5025067;28;20354;-72
2022/04/16 08:15:06;;;;;;;;;;;20.40;82.60;;;;;;5028260;28;20397;-72
2022/04/16 08:17:33;;;;;;;;;;;20.50;82.70;;;;;;5027006;28;19913;-72
2022/04/16 08:19:58;;;;;;;;;;;20.50;82.40;;;;;;5026886;28;19913;-72
2022/04/16 08:22:24;;;;;;;;;;;20.70;82.00;;;;;;5029127;28;19909;-72
2022/04/16 08:27:35;;;;;;;;;;;20.80;82.00;;;;;;5026735;28;19936;-73
2022/04/16 08:30:01;;;;;;;;;;;20.80;80.80;;;;;;5024703;28;20414;-73
2022/04/16 08:32:26;;;;;;;;;;;20.90;81.40;;;;;;5026863;28;19920;-74
2022/04/16 08:34:52;;;;;;;;;;;21.00;81.50;;;;;;5027075;28;20337;-74
2022/04/16 08:37:18;;;;;;;;;;;21.10;81.50;;;;;;5011534;28;19912;-74
2022/04/16 08:39:43;;;;;;;;;;;21.10;79.70;;;;;;5005032;28;19927;-74
2022/04/16 08:42:09;;;;;;;;;;;21.30;79.80;;;;;;5026706;28;20226;-74
2022/04/16 08:44:35;;;;;;;;;;;21.40;79.10;;;;;;5026438;28;19913;-73
2022/04/16 08:47:01;;;;;;;;;;;21.40;78.60;;;;;;5026221;28;20377;-75
2022/04/16 08:49:28;;;;;;;;;;;21.50;78.10;;;;;;5028865;28;20456;-75
2022/04/16 08:51:55;;;;;;;;;;;21.50;79.20;;;;;;5029150;28;19909;-72
2022/04/16 08:54:21;;;;;;;;;;;21.50;78.90;;;;;;5026539;28;19920;-75
2022/04/16 08:56:46;;;;;;;;;;;21.60;78.60;;;;;;5026349;28;20084;-73
2022/04/16 08:59:12;;;;;;;;;;;21.70;80.20;;;;;;5026308;28;19913;-73
2022/04/16 09:01:38;;;;;;;;;;;21.80;80.00;;;;;;5027340;28;19917;-73
2022/04/16 09:04:03;;;;;;;;;;;21.90;78.40;;;;;;5028707;28;19964;-73
2022/04/16 09:06:32;;;;;;;;;;;21.90;77.00;;;;;;5026898;28;19913;-74
2022/04/16 09:09:08;;;;;;;;;;;21.90;77.90;;;;;;5022311;28;19925;-73
2022/04/16 09:11:33;;;;;;;;;;;22.10;76.90;;;;;;5016482;28;19916;-74
2022/04/16 09:13:59;;;;;;;;;;;22.10;76.50;;;;;;5026112;28;19913;-74
2022/04/16 09:16:25;;;;;;;;;;;22.20;77.10;;;;;;5028853;28;20002;-74
2022/04/16 09:18:51;;;;;;;;;;;22.30;77.90;;;;;;5008778;28;20481;-74
2022/04/16 09:21:18;;;;;;;;;;;22.30;76.30;;;;;;5026071;28;20362;-74
2022/04/16 09:23:48;;;;;;;;;;;22.50;76.50;;;;;;5025544;28;19912;-73
2022/04/16 09:26:26;;;;;;;;;;;22.60;75.20;;;;;;5024788;28;19966;-74
2022/04/16 09:28:51;;;;;;;;;;;22.70;73.90;;;;;;5022271;28;19921;-73
2022/04/16 09:31:17;;;;;;;;;;;22.70;73.30;;;;;;5014691;28;20016;-73
2022/04/16 09:33:44;;;;;;;;;;;22.80;73.10;;;;;;5028909;28;19948;-70
2022/04/16 09:36:10;;;;;;;;;;;22.80;72.10;;;;;;5028942;28;20004;-70
2022/04/16 09:38:37;;;;;;;;;;;22.90;72.60;;;;;;5028362;28;20000;-71
2022/04/16 09:41:08;;;;;;;;;;;23.00;72.40;;;;;;5028554;28;19921;-69
2022/04/16 09:43:35;;;;;;;;;;;22.90;74.20;;;;;;5030044;28;20357;-71
2022/04/16 09:46:09;;;;;;;;;;;23.10;72.50;;;;;;5030913;28;20362;-71
2022/04/16 09:48:36;;;;;;;;;;;23.20;72.10;;;;;;5028186;28;20267;-72
2022/04/16 09:51:02;;;;;;;;;;;23.20;71.10;;;;;;5028510;28;19909;-74
2022/04/16 09:53:30;;;;;;;;;;;23.20;71.90;;;;;;5028265;28;20001;-70
2022/04/16 09:55:56;;;;;;;;;;;23.30;70.50;;;;;;5028342;28;19916;-69
2022/04/16 09:58:35;;;;;;;;;;;23.30;70.70;;;;;;5031560;28;19905;-69
2022/04/16 10:01:01;;;;;;;;;;;23.40;72.20;;;;;;5030456;28;19951;-69
2022/04/16 10:03:30;;;;;;;;;;;23.30;73.60;;;;;;5028772;28;19909;-72
2022/04/16 10:05:57;;;;;;;;;;;23.50;71.10;;;;;;5028424;28;20390;-72
2022/04/16 10:08:23;;;;;;;;;;;23.60;71.30;;;;;;5028364;28;19917;-71
2022/04/16 10:10:54;;;;;;;;;;;23.70;70.80;;;;;;5028123;28;20293;-70
2022/04/16 10:13:21;;;;;;;;;;;23.70;72.00;;;;;;5030730;28;20003;-71
2022/04/16 10:15:51;;;;;;;;;;;23.80;70.00;;;;;;5028456;28;19905;-73
2022/04/16 10:18:17;;;;;;;;;;;23.80;69.70;;;;;;5027681;28;19963;-73
2022/04/16 10:21:09;;;;;;;;;;;23.70;67.70;;;;;;5027540;28;19913;-73
2022/04/16 10:23:34;;;;;;;;;;;23.80;65.60;;;;;;5023438;28;20007;-73
2022/04/16 10:26:04;;;;;;;;;;;23.80;66.10;;;;;;5027080;28;19991;-74
2022/04/16 10:28:36;;;;;;;;;;;23.90;65.90;;;;;;5030306;28;20000;-70
2022/04/16 10:31:03;;;;;;;;;;;23.90;65.00;;;;;;5030026;28;19905;-71
2022/04/16 10:33:28;;;;;;;;;;;24.00;64.90;;;;;;5027950;28;19916;-70
2022/04/16 10:36:01;;;;;;;;;;;24.20;63.90;;;;;;5028159;28;19909;-70
2022/04/16 10:38:33;;;;;;;;;;;24.20;63.60;;;;;;5027452;28;20374;-70
2022/04/16 10:41:00;;;;;;;;;;;24.20;68.40;;;;;;5016483;28;19913;-70
2022/04/16 10:43:30;;;;;;;;;;;24.10;64.50;;;;;;5028311;28;20328;-70
2022/04/16 10:46:03;;;;;;;;;;;24.30;65.50;;;;;;5029474;28;19954;-70
2022/04/16 10:48:30;;;;;;;;;;;24.30;64.50;;;;;;5028049;28;19975;-70
2022/04/16 10:50:57;;;;;;;;;;;24.40;65.50;;;;;;5028127;28;19932;-70
2022/04/16 10:53:27;;;;;;;;;;;24.50;65.10;;;;;;5027288;28;19912;-70
2022/04/16 10:55:52;;;;;;;;;;;24.50;63.60;;;;;;5028449;28;19926;-71
2022/04/16 10:58:26;;;;;;;;;;;24.60;62.20;;;;;;5031207;28;20297;-71
2022/04/16 11:00:51;;;;;;;;;;;24.50;64.90;;;;;;5030462;28;19916;-70
2022/04/16 11:03:30;;;;;;;;;;;24.60;61.70;;;;;;5027489;28;19909;-71
2022/04/16 11:06:02;;;;;;;;;;;24.60;62.50;;;;;;5027843;28;20362;-70
2022/04/16 11:08:28;;;;;;;;;;;24.70;61.40;;;;;;5027629;28;19920;-71
2022/04/16 11:11:02;;;;;;;;;;;24.90;60.80;;;;;;5027620;28;19993;-72
2022/04/16 11:13:34;;;;;;;;;;;24.90;61.50;;;;;;5030214;28;19948;-72
2022/04/16 11:16:01;;;;;;;;;;;24.80;62.60;;;;;;5029102;28;19909;-72
2022/04/16 11:18:47;;;;;;;;;;;24.90;61.50;;;;;;5027471;28;20032;-72
2022/04/16 11:21:24;;;;;;;;;;;24.90;60.50;;;;;;5026869;28;19932;-73
2022/04/16 11:23:51;;;;;;;;;;;25.20;60.00;;;;;;5027524;28;19905;-73
2022/04/16 11:34:32;;;;;;;;;;;25.50;58.50;;;;;;5028087;28;19928;-75
2022/04/16 11:37:01;;;;;;;;;;;25.40;60.10;;;;;;5029298;28;20350;-75
2022/04/16 11:39:27;;;;;;;;;;;25.30;60.80;;;;;;5023239;28;19979;-74
2022/04/16 11:41:58;;;;;;;;;;;25.40;59.70;;;;;;5024170;28;20428;-75
2022/04/16 11:44:41;;;;;;;;;;;25.30;58.00;;;;;;5030705;28;20433;-75
2022/04/16 11:47:09;;;;;;;;;;;25.30;59.00;;;;;;5029274;28;19956;-75
2022/04/16 11:49:39;;;;;;;;;;;25.40;59.00;;;;;;5024123;28;20388;-75
2022/04/16 11:52:05;;;;;;;;;;;25.40;58.70;;;;;;5022102;28;19992;-75
2022/04/16 11:54:31;;;;;;;;;;;25.50;61.20;;;;;;5027968;28;19913;-76
2022/04/16 11:56:57;;;;;;;;;;;25.60;58.80;;;;;;5030958;28;19912;-73
2022/04/16 11:59:26;;;;;;;;;;;25.50;57.60;;;;;;5030575;28;20376;-74
2022/04/16 12:01:58;;;;;;;;;;;25.50;58.20;;;;;;5030942;28;19909;-74
2022/04/16 12:04:37;;;;;;;;;;;25.60;58.00;;;;;;5033030;28;19905;-74
2022/04/16 12:07:08;;;;;;;;;;;25.80;57.70;;;;;;5032779;28;19912;-75
2022/04/16 12:09:33;;;;;;;;;;;26.00;55.10;;;;;;5030122;28;19928;-74
2022/04/16 12:12:00;;;;;;;;;;;26.10;56.20;;;;;;5030471;28;19909;-75
2022/04/16 12:14:26;;;;;;;;;;;26.00;55.60;;;;;;5030240;28;19999;-75
2022/04/16 12:16:58;;;;;;;;;;;26.00;56.90;;;;;;5030483;28;19959;-74
2022/04/16 12:19:27;;;;;;;;;;;26.10;57.40;;;;;;5032316;28;19967;-74
2022/04/16 12:21:55;;;;;;;;;;;26.00;58.30;;;;;;5033057;28;20282;-74
2022/04/16 12:24:25;;;;;;;;;;;26.10;57.00;;;;;;5030111;28;19908;-75
2022/04/16 12:26:51;;;;;;;;;;;26.00;55.60;;;;;;5030333;28;19909;-75
2022/04/16 12:29:18;;;;;;;;;;;26.10;56.10;;;;;;5030128;28;19979;-75
2022/04/16 12:31:54;;;;;;;;;;;26.20;54.70;;;;;;5031112;28;19909;-75
2022/04/16 12:34:20;;;;;;;;;;;26.10;54.90;;;;;;5029313;28;20286;-75
2022/04/16 12:36:45;;;;;;;;;;;26.20;54.80;;;;;;5030668;28;19905;-75
2022/04/16 12:39:12;;;;;;;;;;;26.30;52.70;;;;;;5029737;28;20472;-81
2022/04/16 12:41:38;;;;;;;;;;;26.40;52.60;;;;;;5029753;28;20381;-82
2022/04/16 12:44:04;;;;;;;;;;;26.60;52.40;;;;;;5030287;28;19921;-82
2022/04/16 12:46:29;;;;;;;;;;;26.70;51.90;;;;;;5032348;28;19940;-83
2022/04/16 12:48:55;;;;;;;;;;;26.80;50.10;;;;;;5029681;28;19924;-81
2022/04/16 12:51:21;;;;;;;;;;;26.70;50.90;;;;;;5030116;28;19909;-84
2022/04/16 12:53:46;;;;;;;;;;;26.90;50.40;;;;;;5029870;28;19909;-83
2022/04/16 12:56:12;;;;;;;;;;;27.00;51.40;;;;;;5029919;28;19909;-84
2022/04/16 12:58:37;;;;;;;;;;;27.00;52.10;;;;;;5030919;28;20028;-84
2022/04/16 13:01:03;;;;;;;;;;;27.20;51.70;;;;;;5014056;28;19916;-83
2022/04/16 13:03:29;;;;;;;;;;;27.20;52.80;;;;;;5028844;28;19909;-83
2022/04/16 13:05:54;;;;;;;;;;;27.30;51.60;;;;;;5030061;28;19917;-84
2022/04/16 13:08:20;;;;;;;;;;;27.20;53.50;;;;;;5029529;28;19920;-83
2022/04/16 13:10:46;;;;;;;;;;;27.10;50.80;;;;;;5030034;28;19924;-82
2022/04/16 13:13:11;;;;;;;;;;;27.20;48.30;;;;;;5032565;28;20302;-82
2022/04/16 13:15:37;;;;;;;;;;;27.30;48.40;;;;;;5028951;28;19913;-83
2022/04/16 13:18:04;;;;;;;;;;;27.30;47.50;;;;;;5028423;28;19913;-83
2022/04/16 13:20:30;;;;;;;;;;;27.30;44.60;;;;;;5028405;28;19909;-84
2022/04/16 13:22:56;;;;;;;;;;;27.30;45.60;;;;;;5029740;28;19920;-84
2022/04/16 13:25:21;;;;;;;;;;;27.30;45.80;;;;;;5032195;28;19912;-84
2022/04/16 13:27:47;;;;;;;;;;;27.40;45.00;;;;;;5029829;28;19912;-84
2022/04/16 13:30:12;;;;;;;;;;;27.30;44.70;;;;;;5028723;28;19967;-83
2022/04/16 13:32:38;;;;;;;;;;;27.40;44.50;;;;;;5029609;28;19915;-84
2022/04/16 13:35:04;;;;;;;;;;;27.40;44.30;;;;;;5029150;28;19909;-83
2022/04/16 13:37:30;;;;;;;;;;;27.40;44.40;;;;;;5031028;28;20433;-82
2022/04/16 13:42:40;;;;;;;;;;;27.40;44.90;;;;;;5028976;28;20002;-83
2022/04/16 13:45:05;;;;;;;;;;;27.50;44.30;;;;;;5028644;28;20339;-84
2022/04/16 13:47:31;;;;;;;;;;;27.50;42.70;;;;;;5028237;28;19909;-84
2022/04/16 13:49:57;;;;;;;;;;;27.50;43.20;;;;;;5028756;28;19921;-84
2022/04/16 13:52:22;;;;;;;;;;;27.60;44.20;;;;;;5032303;28;19905;-85
2022/04/16 13:54:48;;;;;;;;;;;27.60;44.60;;;;;;5030743;28;19905;-84
2022/04/16 13:57:14;;;;;;;;;;;27.70;44.60;;;;;;5029881;28;19995;-84
2022/04/16 13:59:40;;;;;;;;;;;27.70;44.80;;;;;;5028210;28;19909;-83
2022/04/16 14:02:06;;;;;;;;;;;27.80;42.20;;;;;;5025622;28;20363;-84
2022/04/16 14:07:17;;;;;;;;;;;27.70;39.90;;;;;;5022255;28;19948;-74
2022/04/16 14:09:42;;;;;;;;;;;27.50;40.60;;;;;;4997401;28;19928;-74
2022/04/16 14:12:08;;;;;;;;;;;27.50;41.10;;;;;;5022421;28;19917;-74
2022/04/16 14:14:34;;;;;;;;;;;27.50;41.20;;;;;;5015666;28;19921;-73
2022/04/16 14:16:59;;;;;;;;;;;27.50;41.40;;;;;;5014349;28;19987;-73
2022/04/16 14:19:25;;;;;;;;;;;27.60;40.90;;;;;;5027092;28;19904;-74
2022/04/16 14:21:53;;;;;;;;;;;27.60;42.00;;;;;;5027743;28;19916;-74
2022/04/16 14:24:20;;;;;;;;;;;27.70;41.70;;;;;;5024957;28;19916;-74
2022/04/16 14:26:46;;;;;;;;;;;27.70;40.40;;;;;;5025014;28;19920;-74
2022/04/16 14:29:14;;;;;;;;;;;27.60;40.60;;;;;;5024767;28;19913;-74
2022/04/16 14:31:39;;;;;;;;;;;27.50;40.10;;;;;;5025135;28;19924;-74
2022/04/16 14:34:07;;;;;;;;;;;27.60;40.90;;;;;;5027390;28;19909;-74
2022/04/16 14:36:32;;;;;;;;;;;27.60;41.90;;;;;;5025007;28;20524;-74
2022/04/16 14:38:59;;;;;;;;;;;27.80;42.50;;;;;;5024253;28;19932;-74
2022/04/16 14:41:25;;;;;;;;;;;27.70;41.80;;;;;;5025145;28;19908;-74
2022/04/16 14:43:56;;;;;;;;;;;27.70;41.90;;;;;;5024395;28;19913;-73